Time;durP1;ratioP1;P1;durP2;ratioP2;P2;SDS_P1;SDS_P2;PMS_P1;PMS_P2;Temp;Humidity;BMP_temperature;BMP_pressure;BME280_temperature;BME280_humidity;BME280_pressure;Samples;Min_cycle;Max_cycle;Signal;HPM_P1;HPM_P2
2023/12/19 00:00:12;;;;;;;6.13;3.93;;;;;;;17.92;56.37;101672.72;4937103;28;20413;-69
2023/12/19 00:02:39;;;;;;;7.97;3.97;;;;;;;17.95;55.70;101659.75;4967472;28;20566;-69
2023/12/19 00:05:07;;;;;;;9.10;4.27;;;;;;;17.96;55.79;101655.72;4973224;28;20463;-70
2023/12/19 00:07:33;;;;;;;8.80;4.33;;;;;;;17.96;56.27;101642.25;4932532;28;20528;-70
2023/12/19 00:09:58;;;;;;;7.60;4.00;;;;;;;17.92;55.64;101634.72;4954166;28;20469;-69
2023/12/19 00:12:23;;;;;;;7.30;4.20;;;;;;;17.93;55.62;101620.09;4970447;28;20170;-68
2023/12/19 00:14:49;;;;;;;7.80;4.63;;;;;;;17.90;56.08;101623.66;4953201;28;20183;-70
2023/12/19 00:17:14;;;;;;;10.63;4.17;;;;;;;17.90;56.38;101620.78;4935237;29;20517;-69
2023/12/19 00:19:40;;;;;;;6.77;3.60;;;;;;;17.93;55.67;101620.09;4919236;29;20824;-68
2023/12/19 00:22:05;;;;;;;7.27;4.30;;;;;;;17.97;55.64;101614.53;4931718;29;20191;-68
2023/12/19 00:24:31;;;;;;;5.20;3.83;;;;;;;17.94;55.87;101618.91;4934906;29;20182;-69
2023/12/19 00:26:56;;;;;;;6.60;4.07;;;;;;;17.92;55.65;101624.16;4938946;28;20193;-69
2023/12/19 00:29:22;;;;;;;6.53;4.20;;;;;;;17.90;56.04;101635.06;4937875;28;20186;-68
2023/12/19 00:31:47;;;;;;;7.10;4.13;;;;;;;17.88;55.79;101637.44;4961642;28;20234;-68
2023/12/19 00:34:13;;;;;;;6.00;3.83;;;;;;;17.85;56.68;101637.31;4933272;29;20218;-69
2023/12/19 00:36:39;;;;;;;7.37;3.90;;;;;;;17.87;55.92;101630.06;4934688;29;20180;-69
2023/12/19 00:39:04;;;;;;;7.90;3.97;;;;;;;17.85;55.91;101632.41;4933074;29;20510;-70
2023/12/19 00:41:30;;;;;;;6.13;3.43;;;;;;;17.89;55.74;101621.97;4951300;28;20931;-68
2023/12/19 00:43:55;;;;;;;6.30;3.83;;;;;;;17.90;56.13;101629.34;4922710;28;20198;-68
2023/12/19 00:46:21;;;;;;;6.10;4.03;;;;;;;17.85;55.93;101626.69;4922886;29;20245;-69
2023/12/19 00:48:46;;;;;;;8.53;4.47;;;;;;;17.83;56.33;101614.78;4929429;28;20237;-70
2023/12/19 00:51:12;;;;;;;8.60;3.90;;;;;;;17.81;56.56;101611.41;4931969;29;20222;-70
2023/12/19 00:53:37;;;;;;;6.17;3.63;;;;;;;17.83;56.44;101606.22;4950789;28;20198;-70
2023/12/19 00:56:08;;;;;;;7.33;3.80;;;;;;;17.85;55.92;101608.75;4920444;28;20285;-68
2023/12/19 00:58:34;;;;;;;9.13;4.50;;;;;;;17.85;55.81;101620.97;4936344;28;20241;-70
2023/12/19 01:01:00;;;;;;;6.07;3.40;;;;;;;17.81;56.36;101625.69;4919930;28;20781;-71
2023/12/19 01:03:25;;;;;;;6.47;3.77;;;;;;;17.82;56.20;101626.56;4936187;28;20437;-71
2023/12/19 01:05:50;;;;;;;9.90;4.83;;;;;;;17.81;56.61;101613.47;4928439;29;20202;-71
2023/12/19 01:08:16;;;;;;;5.90;3.70;;;;;;;17.83;56.11;101613.94;4937877;28;20191;-71
2023/12/19 01:10:41;;;;;;;7.93;4.27;;;;;;;17.84;56.23;101625.03;4939108;28;20277;-72
2023/12/19 01:13:07;;;;;;;8.20;5.13;;;;;;;17.81;56.05;101625.69;4924115;28;20535;-71
2023/12/19 01:15:32;;;;;;;7.33;4.00;;;;;;;17.81;56.18;101625.69;4937095;28;20669;-71
2023/12/19 01:17:58;;;;;;;6.37;4.00;;;;;;;17.84;56.34;101612.75;4940022;28;20627;-71
2023/12/19 01:20:23;;;;;;;5.47;3.83;;;;;;;17.77;56.75;101601.03;4939709;28;20178;-72
2023/12/19 01:22:49;;;;;;;7.30;4.30;;;;;;;17.81;56.04;101613.47;4939918;28;20167;-71
2023/12/19 01:25:14;;;;;;;6.30;3.77;;;;;;;17.82;56.04;101615.13;4948995;28;20191;-71
2023/12/19 01:27:40;;;;;;;5.27;3.80;;;;;;;17.84;56.04;101627.03;4941438;28;20193;-71
2023/12/19 01:30:06;;;;;;;6.73;3.97;;;;;;;17.80;56.03;101632.59;4956805;28;20281;-71
2023/12/19 01:32:31;;;;;;;5.37;3.60;;;;;;;17.81;56.24;101634.28;4940138;28;20209;-71
2023/12/19 01:34:56;;;;;;;5.90;4.30;;;;;;;17.80;56.13;101646.88;4955223;28;20496;-71
2023/12/19 01:37:22;;;;;;;5.87;3.83;;;;;;;17.79;55.95;101644.38;4939656;28;20225;-72
2023/12/19 01:39:47;;;;;;;7.00;4.70;;;;;;;17.77;55.97;101629.59;4955820;28;20171;-71
2023/12/19 01:42:13;;;;;;;6.47;3.90;;;;;;;17.82;55.98;101638.84;4954830;28;20309;-71
2023/12/19 01:44:38;;;;;;;6.53;3.77;;;;;;;17.79;56.69;101648.06;4934193;29;20187;-71
2023/12/19 01:47:04;;;;;;;9.03;4.07;;;;;;;17.76;56.21;101643.03;4951922;28;20635;-71
2023/12/19 01:49:29;;;;;;;8.97;4.10;;;;;;;17.80;56.08;101648.94;4923069;28;20197;-71
2023/12/19 01:51:55;;;;;;;7.83;4.47;;;;;;;17.77;56.04;101659.03;4935767;28;20225;-71
2023/12/19 01:54:20;;;;;;;5.97;4.03;;;;;;;17.76;56.33;101648.75;4972556;28;20178;-71
2023/12/19 01:56:46;;;;;;;5.60;3.93;;;;;;;17.77;55.87;101663.88;4939518;28;20174;-71
2023/12/19 01:59:11;;;;;;;6.50;4.20;;;;;;;17.75;56.25;101655.66;4956144;28;20179;-71
2023/12/19 02:01:37;;;;;;;6.03;3.53;;;;;;;17.79;55.99;101656.66;4956739;28;20198;-69
2023/12/19 02:04:02;;;;;;;6.27;4.20;;;;;;;17.75;56.37;101658.50;4912471;29;20191;-68
2023/12/19 02:06:28;;;;;;;6.27;3.90;;;;;;;17.77;55.99;101658.16;4938447;28;20197;-68
2023/12/19 02:08:53;;;;;;;7.17;4.43;;;;;;;17.75;56.22;101651.97;4939028;28;20194;-68
2023/12/19 02:11:19;;;;;;;8.07;4.40;;;;;;;17.79;56.29;101650.06;4937236;29;20201;-73
2023/12/19 02:13:44;;;;;;;6.37;3.50;;;;;;;17.74;56.13;101653.97;4921664;28;20562;-70
2023/12/19 02:16:09;;;;;;;6.57;3.70;;;;;;;17.74;56.71;101639.69;4940189;28;20166;-68
2023/12/19 02:18:35;;;;;;;6.50;3.73;;;;;;;17.76;56.67;101645.88;4938552;28;20183;-68
2023/12/19 02:21:01;;;;;;;7.90;4.00;;;;;;;17.72;56.10;101644.94;4924167;28;20183;-68
2023/12/19 02:23:26;;;;;;;6.77;4.13;;;;;;;17.75;56.08;101640.53;4955033;28;20689;-68
2023/12/19 02:25:52;;;;;;;7.13;3.87;;;;;;;17.76;55.87;101640.19;4940268;28;20163;-68
2023/12/19 02:28:17;;;;;;;8.77;4.27;;;;;;;17.76;56.26;101640.19;4925821;28;20194;-69
2023/12/19 02:30:43;;;;;;;6.10;3.73;;;;;;;17.75;55.80;101635.66;4923645;28;20230;-68
2023/12/19 02:33:09;;;;;;;6.13;3.90;;;;;;;17.71;56.31;101634.66;4938065;28;20643;-69
2023/12/19 02:35:34;;;;;;;5.43;3.43;;;;;;;17.74;55.81;101633.13;4921268;29;20211;-70
2023/12/19 02:37:59;;;;;;;6.50;3.80;;;;;;;17.73;56.09;101637.19;4927023;28;20230;-68
2023/12/19 02:40:25;;;;;;;6.40;3.80;;;;;;;17.72;56.41;101641.22;4930382;29;20275;-69
2023/12/19 02:42:50;;;;;;;7.20;3.90;;;;;;;17.72;56.68;101652.66;4944657;28;20186;-69
2023/12/19 02:45:16;;;;;;;6.80;3.80;;;;;;;17.70;56.17;101647.28;4955066;28;20186;-68
2023/12/19 02:47:41;;;;;;;7.50;3.87;;;;;;;17.72;55.92;101653.50;4935831;28;20182;-68
2023/12/19 02:50:07;;;;;;;5.20;3.30;;;;;;;17.74;55.81;101653.97;4937785;28;20218;-70
2023/12/19 02:52:32;;;;;;;9.07;4.17;;;;;;;17.71;55.71;101648.94;4953700;28;20616;-68
2023/12/19 02:54:58;;;;;;;8.60;4.37;;;;;;;17.68;56.00;101643.94;4939950;28;20196;-70
2023/12/19 02:57:23;;;;;;;6.90;3.50;;;;;;;17.73;55.95;101640.03;4937481;28;20220;-68
2023/12/19 02:59:49;;;;;;;6.23;3.60;;;;;;;17.70;56.32;101646.44;4955026;28;20190;-69
2023/12/19 03:02:14;;;;;;;7.27;3.80;;;;;;;17.68;56.15;101645.94;4947033;28;20525;-69
2023/12/19 03:04:39;;;;;;;5.20;3.30;;;;;;;17.69;56.08;101650.47;4938951;28;20673;-68
2023/12/19 03:07:05;;;;;;;6.63;3.90;;;;;;;17.75;56.08;101632.78;4923322;28;20209;-69
2023/12/19 03:09:31;;;;;;;5.30;3.57;;;;;;;17.71;55.81;101626.09;4954238;28;20182;-71
2023/12/19 03:12:06;;;;;;;6.83;4.20;;;;;;;17.72;55.75;101630.66;4938946;28;20551;-71
2023/12/19 03:14:35;;;;;;;7.03;4.20;;;;;;;17.70;55.86;101629.31;4939058;28;20173;-71
2023/12/19 03:17:01;;;;;;;7.03;3.70;;;;;;;17.71;55.84;101620.38;4935080;29;20449;-72
2023/12/19 03:19:26;;;;;;;6.80;3.67;;;;;;;17.67;55.94;101610.84;4970383;28;20450;-71
2023/12/19 03:21:52;;;;;;;5.87;4.03;;;;;;;17.67;56.57;101601.44;4935967;28;20507;-72
2023/12/19 03:24:17;;;;;;;9.50;4.53;;;;;;;17.66;55.92;101611.19;4924375;29;20617;-72
2023/12/19 03:26:42;;;;;;;8.83;3.80;;;;;;;17.66;56.19;101612.00;4943958;28;20190;-71
2023/12/19 03:29:08;;;;;;;5.43;3.53;;;;;;;17.69;56.21;101608.47;4918165;28;20238;-71
2023/12/19 03:31:33;;;;;;;4.23;3.30;;;;;;;17.69;55.54;101610.47;4959378;28;20205;-71
2023/12/19 03:34:01;;;;;;;6.13;3.60;;;;;;;17.69;56.03;101616.19;4941203;28;20206;-71
2023/12/19 03:36:26;;;;;;;6.77;3.93;;;;;;;17.67;56.55;101604.28;4931164;29;20727;-71
2023/12/19 03:38:52;;;;;;;5.57;3.70;;;;;;;17.67;56.03;101590.84;4964282;28;20473;-71
2023/12/19 03:41:17;;;;;;;6.63;3.70;;;;;;;17.67;56.39;101590.84;4969575;28;20174;-71
2023/12/19 03:43:43;;;;;;;5.70;3.80;;;;;;;17.67;55.99;101592.88;4970648;28;20177;-71
2023/12/19 03:46:08;;;;;;;5.00;3.30;;;;;;;17.68;55.61;101592.53;4955480;28;20181;-71
2023/12/19 03:48:36;;;;;;;5.33;3.40;;;;;;;17.67;55.70;101593.72;4918475;29;20182;-73
2023/12/19 03:51:02;;;;;;;7.30;3.47;;;;;;;17.70;55.95;101595.03;4935100;29;20226;-71
2023/12/19 03:53:28;;;;;;;6.53;3.97;;;;;;;17.68;56.28;101586.81;4934948;29;20422;-72
2023/12/19 03:55:54;;;;;;;6.20;3.80;;;;;;;17.68;55.73;101581.09;4922824;29;20446;-71
2023/12/19 03:58:19;;;;;;;5.40;3.30;;;;;;;17.68;55.99;101578.25;4919050;29;20183;-71
2023/12/19 04:00:45;;;;;;;5.70;3.63;;;;;;;17.65;56.12;101581.78;4919100;29;20415;-71
2023/12/19 04:03:11;;;;;;;6.70;3.77;;;;;;;17.68;55.83;101581.09;4952655;28;20225;-72
2023/12/19 04:05:36;;;;;;;7.20;3.77;;;;;;;17.66;55.88;101572.03;4935763;28;20190;-71
2023/12/19 04:08:02;;;;;;;5.30;3.20;;;;;;;17.65;55.77;101563.81;4923111;29;20957;-71
2023/12/19 04:10:27;;;;;;;5.93;3.67;;;;;;;17.64;56.12;101574.41;4937498;28;20211;-71
2023/12/19 04:12:53;;;;;;;4.90;3.30;;;;;;;17.66;55.79;101572.03;4903213;29;20191;-71
2023/12/19 04:15:19;;;;;;;6.13;3.67;;;;;;;17.67;55.87;101576.56;4937233;28;20213;-71
2023/12/19 04:17:44;;;;;;;4.83;3.47;;;;;;;17.66;55.71;101577.72;4952001;28;20201;-71
2023/12/19 04:20:10;;;;;;;7.17;4.07;;;;;;;17.66;55.25;101574.88;4940902;28;20213;-74
2023/12/19 04:22:36;;;;;;;6.30;3.67;;;;;;;17.63;56.01;101561.31;4931648;29;20194;-75
2023/12/19 04:25:01;;;;;;;5.70;3.77;;;;;;;17.62;56.21;101553.94;4923249;29;20425;-74
2023/12/19 04:27:27;;;;;;;5.40;3.30;;;;;;;17.62;56.13;101553.06;4922809;29;20175;-74
2023/12/19 04:29:55;;;;;;;5.60;3.23;;;;;;;17.64;56.48;101550.69;4923410;28;20174;-74
2023/12/19 04:32:20;;;;;;;5.67;3.57;;;;;;;17.64;55.48;101542.97;4952767;28;20237;-75
2023/12/19 04:34:46;;;;;;;6.47;3.97;;;;;;;17.63;56.08;101544.16;4958399;28;20503;-75
2023/12/19 04:37:11;;;;;;;5.50;3.40;;;;;;;17.67;55.17;101535.75;4956703;28;20238;-74
2023/12/19 04:39:36;;;;;;;5.80;3.57;;;;;;;17.62;55.71;101548.22;4940356;28;20194;-75
2023/12/19 04:42:06;;;;;;;4.63;2.90;;;;;;;17.62;56.01;101551.06;4956109;28;20186;-75
2023/12/19 04:44:35;;;;;;;6.50;3.30;;;;;;;17.64;55.91;101545.84;4929727;28;20340;-75
2023/12/19 04:47:00;;;;;;;4.70;3.23;;;;;;;17.64;55.59;101542.13;4951018;28;20557;-74
2023/12/19 04:49:26;;;;;;;5.30;3.27;;;;;;;17.64;56.15;101531.56;4927941;29;20446;-74
2023/12/19 04:51:51;;;;;;;5.73;3.20;;;;;;;17.59;55.74;101528.06;4941593;29;20222;-75
2023/12/19 04:54:17;;;;;;;4.40;3.10;;;;;;;17.62;55.82;101525.38;4916166;29;20282;-75
2023/12/19 04:56:42;;;;;;;4.13;2.63;;;;;;;17.63;55.87;101521.31;4942800;29;20237;-75
2023/12/19 04:59:08;;;;;;;4.67;3.43;;;;;;;17.66;55.48;101512.03;4944580;28;20234;-74
2023/12/19 05:01:33;;;;;;;3.90;2.70;;;;;;;17.59;55.84;101523.19;4951936;28;20181;-75
2023/12/19 05:03:59;;;;;;;4.90;3.13;;;;;;;17.57;56.31;101522.72;4940527;28;20191;-75
2023/12/19 05:06:24;;;;;;;4.57;3.00;;;;;;;17.58;55.69;101523.53;4929280;28;20189;-75
2023/12/19 05:08:50;;;;;;;4.83;3.33;;;;;;;17.58;56.13;101521.53;4925498;28;20187;-75
2023/12/19 05:11:15;;;;;;;5.10;3.43;;;;;;;17.62;55.51;101510.25;4928480;28;20209;-75
2023/12/19 05:13:40;;;;;;;5.73;3.40;;;;;;;17.59;55.90;101520.34;4929459;28;20186;-75
2023/12/19 05:16:13;;;;;;;4.13;2.60;;;;;;;17.66;55.99;101514.91;4940338;28;20190;-74
2023/12/19 05:18:41;;;;;;;5.10;3.10;;;;;;;17.64;55.77;101517.28;4944484;28;20246;-74
2023/12/19 05:21:06;;;;;;;6.33;3.10;;;;;;;17.59;56.09;101526.06;4923106;29;20465;-73
2023/12/19 05:23:32;;;;;;;6.73;3.47;;;;;;;17.59;55.68;101531.75;4924089;28;21008;-75
2023/12/19 05:25:57;;;;;;;5.53;3.50;;;;;;;17.59;56.67;101533.75;4925357;28;20190;-73
2023/12/19 05:28:23;;;;;;;4.80;3.00;;;;;;;17.56;55.76;101518.16;4941492;28;20166;-73
2023/12/19 05:30:48;;;;;;;4.87;3.07;;;;;;;17.56;55.80;101520.19;4954346;28;20205;-72
2023/12/19 05:33:14;;;;;;;5.63;3.27;;;;;;;17.56;55.97;101518.16;4936951;28;20190;-71
2023/12/19 05:35:39;;;;;;;4.83;2.83;;;;;;;17.56;55.66;101523.88;4951090;28;20209;-72
2023/12/19 05:38:05;;;;;;;7.60;3.60;;;;;;;17.56;55.66;101526.72;4954986;28;20238;-72
2023/12/19 05:40:30;;;;;;;5.13;3.17;;;;;;;17.57;55.84;101524.72;4939123;28;20182;-72
2023/12/19 05:42:58;;;;;;;4.60;3.00;;;;;;;17.55;55.91;101545.03;4937061;29;20163;-72
2023/12/19 05:45:24;;;;;;;4.17;3.00;;;;;;;17.57;55.46;101548.41;4943188;28;20174;-72
2023/12/19 05:47:49;;;;;;;5.57;3.20;;;;;;;17.55;55.71;101549.94;4951431;28;20442;-71
2023/12/19 05:50:14;;;;;;;5.53;3.13;;;;;;;17.55;56.06;101547.91;4956243;28;20991;-72
2023/12/19 05:52:40;;;;;;;4.70;3.07;;;;;;;17.58;55.50;101552.94;4939500;28;20469;-72
2023/12/19 05:55:06;;;;;;;4.57;2.97;;;;;;;17.57;55.86;101565.53;4955537;28;20193;-72
2023/12/19 05:57:32;;;;;;;5.23;3.13;;;;;;;17.53;55.92;101564.56;4934141;28;20186;-72
2023/12/19 05:59:58;;;;;;;4.47;2.90;;;;;;;17.53;55.88;101558.00;4939571;28;20461;-72
2023/12/19 06:02:23;;;;;;;5.67;3.27;;;;;;;17.55;55.67;101567.88;4939929;28;20654;-71
2023/12/19 06:04:52;;;;;;;4.07;2.93;;;;;;;17.52;55.89;101571.44;4937584;28;20445;-71
2023/12/19 06:07:17;;;;;;;7.27;3.70;;;;;;;17.52;56.00;101570.59;4967673;28;20194;-72
2023/12/19 06:09:42;;;;;;;3.80;3.17;;;;;;;17.53;55.84;101573.13;4935325;29;20446;-71
2023/12/19 06:12:08;;;;;;;4.27;3.50;;;;;;;17.56;55.72;101568.75;4924928;28;20203;-72
2023/12/19 06:14:36;;;;;;;4.30;2.70;;;;;;;17.53;55.63;101570.25;4936598;29;20198;-72
2023/12/19 06:17:02;;;;;;;4.90;2.90;;;;;;;17.53;55.67;101573.13;4936339;28;20182;-72
2023/12/19 06:19:27;;;;;;;6.17;3.13;;;;;;;17.53;55.83;101560.84;4925957;28;20453;-72
2023/12/19 06:21:53;;;;;;;5.50;3.13;;;;;;;17.48;56.17;101559.03;4939285;28;20166;-72
2023/12/19 06:24:18;;;;;;;4.67;2.70;;;;;;;17.49;56.29;101557.84;4953823;28;20178;-72
2023/12/19 06:26:44;;;;;;;4.60;2.93;;;;;;;17.48;55.89;101556.19;4938576;28;20201;-72
2023/12/19 06:29:09;;;;;;;4.47;3.07;;;;;;;17.49;55.94;101565.56;4938682;28;20215;-72
2023/12/19 06:31:41;;;;;;;5.00;3.13;;;;;;;17.51;55.67;101575.47;4935216;29;20222;-71
2023/12/19 06:34:06;;;;;;;5.87;2.90;;;;;;;17.47;55.62;101574.50;4956574;28;20675;-72
2023/12/19 06:36:32;;;;;;;3.83;2.70;;;;;;;17.48;55.88;101576.16;4919872;29;20429;-71
2023/12/19 06:38:58;;;;;;;5.10;2.90;;;;;;;17.46;55.95;101578.50;4950269;28;20231;-74
2023/12/19 06:41:23;;;;;;;6.83;3.10;;;;;;;17.47;56.07;101579.34;4927444;28;20285;-74
2023/12/19 06:43:48;;;;;;;4.93;3.40;;;;;;;17.50;55.39;101568.09;4920181;29;20191;-74
2023/12/19 06:46:17;;;;;;;5.77;2.50;;;;;;;17.45;56.06;101559.72;4940069;28;20241;-74
2023/12/19 06:48:43;;;;;;;5.40;3.20;;;;;;;17.46;56.10;101574.84;4920984;29;20227;-73
2023/12/19 06:51:09;;;;;;;5.03;3.23;;;;;;;17.49;55.49;101577.84;4920486;28;20462;-73
2023/12/19 06:53:34;;;;;;;5.63;3.20;;;;;;;17.43;55.67;101564.94;4939732;28;20178;-74
2023/12/19 06:55:59;;;;;;;6.23;3.07;;;;;;;17.48;55.64;101572.47;4918788;29;20191;-73
2023/12/19 06:58:25;;;;;;;3.90;3.00;;;;;;;17.45;55.23;101571.13;4960115;28;20186;-74
2023/12/19 07:00:51;;;;;;;4.17;2.80;;;;;;;17.46;55.37;101571.97;4938957;28;20187;-74
2023/12/19 07:03:18;;;;;;;6.17;2.93;;;;;;;17.45;55.80;101576.84;4926861;28;20186;-74
2023/12/19 07:05:43;;;;;;;4.93;3.10;;;;;;;17.44;55.46;101583.72;4919486;29;20442;-73
2023/12/19 07:08:09;;;;;;;5.60;3.13;;;;;;;17.44;55.54;101577.16;4926579;28;20921;-73
2023/12/19 07:10:34;;;;;;;3.33;2.47;;;;;;;17.43;55.59;101584.91;4902539;29;20278;-74
2023/12/19 07:13:00;;;;;;;5.17;2.63;;;;;;;17.43;55.56;101592.63;4949419;28;20201;-74
2023/12/19 07:15:25;;;;;;;4.83;2.90;;;;;;;17.42;56.16;101588.97;4934585;28;20189;-74
2023/12/19 07:17:51;;;;;;;5.00;3.03;;;;;;;17.43;55.35;101589.78;4919932;28;20190;-73
2023/12/19 07:20:16;;;;;;;4.73;2.80;;;;;;;17.43;56.14;101584.91;4932153;28;20201;-73
2023/12/19 07:22:43;;;;;;;4.73;3.10;;;;;;;17.41;55.63;101584.41;4954012;28;20209;-74
2023/12/19 07:25:09;;;;;;;4.47;2.60;;;;;;;17.42;56.30;101579.53;4953482;28;20166;-73
2023/12/19 07:27:34;;;;;;;5.50;2.97;;;;;;;17.40;55.71;101571.31;4933823;28;21202;-74
2023/12/19 07:30:00;;;;;;;4.00;2.67;;;;;;;17.38;56.32;101569.94;4902987;28;20423;-74
2023/12/19 07:32:25;;;;;;;3.40;2.30;;;;;;;17.38;55.97;101569.94;4938078;28;20194;-74
2023/12/19 07:34:51;;;;;;;3.47;2.37;;;;;;;17.38;55.56;101572.81;4940594;28;20221;-74
2023/12/19 07:37:16;;;;;;;4.90;3.00;;;;;;;17.38;55.91;101565.09;4938508;28;20219;-74
2023/12/19 07:39:42;;;;;;;4.00;2.70;;;;;;;17.38;55.86;101570.81;4937059;28;20626;-73
2023/12/19 07:42:08;;;;;;;3.83;2.57;;;;;;;17.39;55.66;101560.25;4919362;29;20591;-73
2023/12/19 07:44:33;;;;;;;3.30;2.50;;;;;;;17.39;55.66;101566.78;4934962;29;20591;-73
2023/12/19 07:46:59;;;;;;;4.07;2.40;;;;;;;17.36;55.76;101570.28;4930126;29;20662;-74
2023/12/19 07:49:24;;;;;;;4.43;2.83;;;;;;;17.35;55.35;101568.63;4934327;29;20842;-72
2023/12/19 07:51:50;;;;;;;4.13;2.70;;;;;;;17.39;55.33;101549.66;4923517;28;20256;-72
2023/12/19 07:54:16;;;;;;;4.40;2.77;;;;;;;17.39;55.24;101563.09;4937736;28;20182;-72
2023/12/19 07:56:42;;;;;;;3.50;2.47;;;;;;;17.36;55.39;101561.72;4937295;28;20186;-72
2023/12/19 07:59:09;;;;;;;4.67;2.77;;;;;;;17.35;55.90;101562.91;4933939;28;20448;-72
2023/12/19 08:01:34;;;;;;;3.23;2.43;;;;;;;17.35;55.81;101568.63;4937928;28;20559;-72
2023/12/19 08:04:00;;;;;;;4.27;2.70;;;;;;;17.37;55.25;101574.84;4956913;28;20897;-72
2023/12/19 08:06:26;;;;;;;4.80;3.07;;;;;;;17.34;55.66;101561.25;4972666;28;20171;-72
2023/12/19 08:08:52;;;;;;;3.70;2.43;;;;;;;17.33;55.35;101556.72;4956437;28;20262;-72
2023/12/19 08:11:18;;;;;;;5.23;3.10;;;;;;;17.33;55.51;101550.16;4952906;28;20468;-72
2023/12/19 08:13:44;;;;;;;5.57;2.83;;;;;;;17.29;56.32;101552.88;4934491;28;20572;-72
2023/12/19 08:16:09;;;;;;;3.93;2.67;;;;;;;17.33;55.44;101538.75;4935555;28;20282;-72
2023/12/19 08:18:36;;;;;;;4.37;2.57;;;;;;;17.33;55.32;101547.31;4917136;29;20620;-71
2023/12/19 08:21:05;;;;;;;4.57;2.80;;;;;;;17.32;56.04;101549.34;4933273;29;20183;-72
2023/12/19 08:23:30;;;;;;;2.90;2.40;;;;;;;17.29;55.61;101547.16;4938228;28;21078;-72
2023/12/19 08:25:56;;;;;;;3.07;2.30;;;;;;;17.33;56.05;101551.00;4935333;28;20457;-71
2023/12/19 08:28:21;;;;;;;3.53;2.80;;;;;;;17.33;55.45;101545.31;4941867;28;20238;-72
2023/12/19 08:30:46;;;;;;;3.87;2.53;;;;;;;17.29;55.68;101535.75;4953671;28;20510;-71
2023/12/19 08:33:12;;;;;;;4.77;2.67;;;;;;;17.27;55.56;101529.56;4947475;28;20230;-72
2023/12/19 08:35:37;;;;;;;4.27;2.50;;;;;;;17.24;55.89;101521.66;4913472;29;20214;-72
2023/12/19 08:38:03;;;;;;;4.27;2.90;;;;;;;17.26;56.15;101519.28;4941813;28;20233;-71
2023/12/19 08:40:28;;;;;;;4.10;2.77;;;;;;;17.27;55.87;101518.13;4951868;28;20183;-71
2023/12/19 08:42:54;;;;;;;4.40;2.70;;;;;;;17.29;55.57;101515.78;4953045;28;20190;-72
2023/12/19 08:45:22;;;;;;;4.80;3.37;;;;;;;17.28;55.62;101502.69;4940008;28;20182;-72
2023/12/19 08:47:48;;;;;;;3.00;2.13;;;;;;;17.26;55.88;101496.47;4946184;28;20281;-71
2023/12/19 08:50:15;;;;;;;3.90;2.40;;;;;;;17.24;56.01;101503.69;4965060;28;20460;-72
2023/12/19 08:52:42;;;;;;;4.80;2.87;;;;;;;17.25;55.64;101509.06;4965412;28;20460;-72
2023/12/19 08:55:11;;;;;;;7.13;3.83;;;;;;;17.23;54.40;101505.72;4929436;28;20990;-72
2023/12/19 08:57:43;;;;;;;15.77;4.77;;;;;;;17.12;53.36;101501.59;4937301;28;20485;-72
2023/12/19 09:00:13;;;;;;;11.00;5.70;;;;;;;16.85;51.22;101493.47;4936772;28;20518;-72
2023/12/19 09:02:42;;;;;;;16.87;9.23;;;;;;;16.64;46.21;101491.66;4951398;28;20428;-72
2023/12/19 09:05:10;;;;;;;13.20;7.50;;;;;;;16.55;50.58;101497.41;4918937;28;21001;-71
2023/12/19 09:07:36;;;;;;;17.97;8.50;;;;;;;16.66;46.75;101501.56;4951979;28;20433;-71
2023/12/19 09:10:02;;;;;;;10.73;7.47;;;;;;;16.80;47.30;101510.75;4934077;28;20445;-71
2023/12/19 09:12:27;;;;;;;11.63;7.33;;;;;;;16.89;46.48;101517.28;4928307;28;20214;-72
2023/12/19 09:14:53;;;;;;;10.50;7.20;;;;;;;16.93;47.12;101531.69;4933551;28;20189;-71
2023/12/19 09:17:18;;;;;;;11.17;6.83;;;;;;;17.04;46.94;101525.28;4934665;28;20659;-71
2023/12/19 09:19:44;;;;;;;10.07;6.43;;;;;;;17.28;46.59;101521.81;4949325;28;20193;-70
2023/12/19 09:22:10;;;;;;;10.50;6.43;;;;;;;17.37;46.73;101517.75;4910515;28;20792;-71
2023/12/19 09:24:35;;;;;;;15.80;6.43;;;;;;;17.60;46.20;101522.00;4936214;28;20516;-71
2023/12/19 09:27:01;;;;;;;17.60;5.63;;;;;;;17.88;45.97;101514.59;4934968;28;20233;-70
2023/12/19 09:29:27;;;;;;;10.47;6.00;;;;;;;18.15;45.87;101511.19;4940632;28;20183;-70
2023/12/19 09:31:54;;;;;;;9.17;5.60;;;;;;;18.40;45.47;101501.56;4939307;28;20469;-71
2023/12/19 09:34:19;;;;;;;12.77;5.83;;;;;;;18.43;45.84;101502.88;4956312;28;20481;-71
2023/12/19 09:36:45;;;;;;;12.87;5.60;;;;;;;18.45;46.22;101498.50;4956211;28;20410;-71
2023/12/19 09:39:14;;;;;;;13.70;5.47;;;;;;;18.34;46.54;101508.69;4937175;28;20304;-70
2023/12/19 09:41:43;;;;;;;11.13;5.30;;;;;;;18.34;46.68;101494.41;4955766;28;20182;-71
2023/12/19 09:44:08;;;;;;;9.20;4.90;;;;;;;18.32;47.26;101507.34;4937091;28;20791;-70
2023/12/19 09:46:33;;;;;;;10.60;5.10;;;;;;;18.22;47.43;101493.47;4951968;28;20433;-71
2023/12/19 09:49:00;;;;;;;6.27;4.73;;;;;;;18.15;47.91;101496.88;4958970;28;20158;-71
2023/12/19 09:51:30;;;;;;;8.20;5.23;;;;;;;18.07;48.09;101483.50;4953680;28;20222;-70
2023/12/19 09:53:55;;;;;;;8.27;5.07;;;;;;;18.02;48.56;101477.19;4939266;28;20484;-70
2023/12/19 09:56:22;;;;;;;7.00;4.33;;;;;;;17.95;49.03;101472.00;4937541;28;20446;-71
2023/12/19 09:58:48;;;;;;;7.43;4.83;;;;;;;17.95;49.18;101462.59;4922213;28;20194;-70
2023/12/19 10:01:17;;;;;;;10.70;5.23;;;;;;;17.91;49.24;101470.22;4954158;28;21050;-70
2023/12/19 10:03:43;;;;;;;7.53;4.40;;;;;;;17.92;49.11;101472.72;4938487;28;20442;-70
2023/12/19 10:06:09;;;;;;;7.17;4.50;;;;;;;17.96;49.35;101490.81;4921822;28;20473;-70
2023/12/19 10:08:44;;;;;;;9.83;4.70;;;;;;;17.87;49.95;101472.94;4954431;28;20205;-73
2023/12/19 10:11:15;;;;;;;8.20;4.33;;;;;;;17.78;50.20;101462.75;4957449;28;20202;-72
2023/12/19 10:13:40;;;;;;;6.50;4.20;;;;;;;17.73;50.71;101472.38;4953869;28;20465;-73
2023/12/19 10:16:08;;;;;;;7.13;4.60;;;;;;;17.72;50.50;101462.13;4940986;28;20429;-72
2023/12/19 10:18:33;;;;;;;7.60;4.90;;;;;;;17.72;51.25;101455.56;4941637;28;20723;-73
2023/12/19 10:21:03;;;;;;;9.10;4.20;;;;;;;17.69;50.70;101457.09;4942730;28;20410;-72
2023/12/19 10:23:29;;;;;;;7.23;4.47;;;;;;;17.68;51.12;101461.16;4941242;28;20861;-73
2023/12/19 10:25:54;;;;;;;6.17;4.30;;;;;;;17.63;52.12;101458.50;4974258;28;20458;-73
2023/12/19 10:28:20;;;;;;;6.17;4.73;;;;;;;17.65;51.09;101453.28;4938048;28;20186;-73
2023/12/19 10:30:45;;;;;;;5.77;4.20;;;;;;;17.60;51.75;101441.22;4942196;28;20217;-73
2023/12/19 10:33:10;;;;;;;6.13;4.30;;;;;;;17.59;51.61;101450.97;4945339;28;20878;-72
2023/12/19 10:35:39;;;;;;;8.43;4.70;;;;;;;17.57;51.59;101442.75;4961105;28;20204;-73
2023/12/19 10:38:08;;;;;;;6.37;4.27;;;;;;;17.57;52.00;101439.91;4945422;28;20265;-73
2023/12/19 10:40:33;;;;;;;6.50;4.37;;;;;;;17.56;52.14;101426.78;4957889;28;20882;-72
2023/12/19 10:42:59;;;;;;;5.87;4.30;;;;;;;17.55;52.34;101404.31;4958157;28;20417;-73
2023/12/19 10:45:24;;;;;;;6.90;4.00;;;;;;;17.54;52.47;101386.34;4944519;28;20256;-73
2023/12/19 10:47:50;;;;;;;6.50;3.90;;;;;;;17.52;52.30;101391.56;4943485;28;20667;-73
2023/12/19 10:50:15;;;;;;;6.80;4.07;;;;;;;17.54;52.61;101392.06;4938663;29;20178;-73
2023/12/19 10:52:42;;;;;;;6.30;3.87;;;;;;;17.52;52.22;101387.88;4938559;28;20185;-74
2023/12/19 10:55:11;;;;;;;6.47;4.07;;;;;;;17.51;52.75;101387.03;4958510;28;20714;-73
2023/12/19 10:57:37;;;;;;;6.27;3.77;;;;;;;17.52;52.24;101377.31;4942315;28;20929;-73
2023/12/19 11:00:10;;;;;;;5.93;4.10;;;;;;;17.54;52.13;101389.19;4942906;28;20425;-72
2023/12/19 11:02:51;;;;;;;6.33;3.80;;;;;;;17.53;52.57;101390.38;4944134;28;20422;-73
2023/12/19 11:05:41;;;;;;;6.00;4.40;;;;;;;17.51;53.12;101372.75;4937592;29;20482;-73
2023/12/19 11:08:17;;;;;;;9.00;4.53;;;;;;;17.51;52.56;101374.78;4947256;28;20488;-73
2023/12/19 11:10:49;;;;;;;8.17;4.30;;;;;;;17.49;52.70;101360.84;4944630;28;20488;-73
2023/12/19 11:13:14;;;;;;;6.20;3.97;;;;;;;17.54;52.90;101354.09;4958845;28;20433;-73
2023/12/19 11:15:44;;;;;;;5.67;3.60;;;;;;;17.50;52.57;101362.53;4940258;28;20492;-72
2023/12/19 11:18:13;;;;;;;6.00;4.17;;;;;;;17.47;53.13;101359.53;4943854;28;20236;-70